sensor_id;sensor_type;location;lat;lon;timestamp;pressure;altitude;pressure_sealevel;temperature;humidity
69528;BME280;57136;51.986;4.468;2023-02-23T00:02:19;101415.03;;;8.71;100.00
69528;BME280;57136;51.986;4.468;2023-02-23T00:04:44;101412.34;;;8.68;100.00
69528;BME280;57136;51.986;4.468;2023-02-23T00:07:10;101415.63;;;8.58;100.00
69528;BME280;57136;51.986;4.468;2023-02-23T00:09:35;101415.44;;;8.50;100.00
69528;BME280;57136;51.986;4.468;2023-02-23T00:12:03;101414.44;;;8.46;100.00
69528;BME280;57136;51.986;4.468;2023-02-23T00:14:32;101416.47;;;8.58;100.00
69528;BME280;57136;51.986;4.468;2023-02-23T00:16:58;101413.09;;;8.61;100.00
69528;BME280;57136;51.986;4.468;2023-02-23T00:19:24;101411.34;;;8.60;100.00
69528;BME280;57136;51.986;4.468;2023-02-23T00:21:50;101416.38;;;8.53;100.00
69528;BME280;57136;51.986;4.468;2023-02-23T00:24:16;101421.59;;;8.55;100.00
69528;BME280;57136;51.986;4.468;2023-02-23T00:26:48;101418.41;;;8.67;100.00
69528;BME280;57136;51.986;4.468;2023-02-23T00:29:23;101421.00;;;8.67;100.00
69528;BME280;57136;51.986;4.468;2023-02-23T00:31:50;101417.75;;;8.76;100.00
69528;BME280;57136;51.986;4.468;2023-02-23T00:34:17;101417.91;;;8.85;100.00
69528;BME280;57136;51.986;4.468;2023-02-23T00:36:48;101419.50;;;8.77;100.00
69528;BME280;57136;51.986;4.468;2023-02-23T00:39:14;101412.34;;;8.66;100.00
69528;BME280;57136;51.986;4.468;2023-02-23T00:41:49;101402.56;;;8.56;100.00
69528;BME280;57136;51.986;4.468;2023-02-23T00:44:16;101402.47;;;8.51;100.00
69528;BME280;57136;51.986;4.468;2023-02-23T00:46:42;101401.59;;;8.51;100.00
69528;BME280;57136;51.986;4.468;2023-02-23T00:49:10;101406.84;;;8.52;100.00
69528;BME280;57136;51.986;4.468;2023-02-23T00:51:36;101401.56;;;8.49;100.00
69528;BME280;57136;51.986;4.468;2023-02-23T00:54:01;101405.00;;;8.48;100.00
69528;BME280;57136;51.986;4.468;2023-02-23T00:56:27;101402.31;;;8.45;100.00
69528;BME280;57136;51.986;4.468;2023-02-23T00:58:53;101400.59;;;8.46;100.00
69528;BME280;57136;51.986;4.468;2023-02-23T01:01:18;101405.06;;;8.50;100.00
69528;BME280;57136;51.986;4.468;2023-02-23T01:03:44;101408.50;;;8.49;100.00
69528;BME280;57136;51.986;4.468;2023-02-23T01:06:13;101411.00;;;8.47;100.00
69528;BME280;57136;51.986;4.468;2023-02-23T01:08:42;101407.56;;;8.47;100.00
69528;BME280;57136;51.986;4.468;2023-02-23T01:11:10;101419.06;;;8.58;100.00
69528;BME280;57136;51.986;4.468;2023-02-23T01:13:41;101413.94;;;8.61;100.00
69528;BME280;57136;51.986;4.468;2023-02-23T01:16:09;101417.63;;;8.71;100.00
69528;BME280;57136;51.986;4.468;2023-02-23T01:18:36;101415.75;;;8.64;100.00
69528;BME280;57136;51.986;4.468;2023-02-23T01:21:24;101415.50;;;8.53;100.00
69528;BME280;57136;51.986;4.468;2023-02-23T01:23:52;101413.69;;;8.49;100.00
69528;BME280;57136;51.986;4.468;2023-02-23T01:26:22;101417.94;;;8.47;100.00
69528;BME280;57136;51.986;4.468;2023-02-23T01:28:50;101414.78;;;8.59;100.00
69528;BME280;57136;51.986;4.468;2023-02-23T01:31:15;101419.06;;;8.57;100.00
69528;BME280;57136;51.986;4.468;2023-02-23T01:33:40;101419.00;;;8.55;100.00
69528;BME280;57136;51.986;4.468;2023-02-23T01:36:06;101420.03;;;8.62;100.00
69528;BME280;57136;51.986;4.468;2023-02-23T01:38:35;101416.47;;;8.58;100.00
69528;BME280;57136;51.986;4.468;2023-02-23T01:41:02;101418.22;;;8.59;100.00
69528;BME280;57136;51.986;4.468;2023-02-23T01:43:28;101421.81;;;8.64;100.00
69528;BME280;57136;51.986;4.468;2023-02-23T01:45:55;101421.91;;;8.69;100.00
69528;BME280;57136;51.986;4.468;2023-02-23T01:48:27;101422.97;;;8.79;100.00
69528;BME280;57136;51.986;4.468;2023-02-23T01:50:58;101426.44;;;8.78;100.00
69528;BME280;57136;51.986;4.468;2023-02-23T01:53:27;101428.00;;;8.69;100.00
69528;BME280;57136;51.986;4.468;2023-02-23T01:55:57;101424.72;;;8.78;100.00
69528;BME280;57136;51.986;4.468;2023-02-23T01:58:26;101426.19;;;8.67;100.00
69528;BME280;57136;51.986;4.468;2023-02-23T02:00:55;101424.69;;;8.77;100.00
69528;BME280;57136;51.986;4.468;2023-02-23T02:05:57;101431.69;;;8.81;100.00
69528;BME280;57136;51.986;4.468;2023-02-23T02:08:27;101434.13;;;8.73;100.00
69528;BME280;57136;51.986;4.468;2023-02-23T02:10:54;101434.13;;;8.73;100.00
69528;BME280;57136;51.986;4.468;2023-02-23T02:13:27;101437.56;;;8.72;100.00
69528;BME280;57136;51.986;4.468;2023-02-23T02:16:18;101432.53;;;8.80;100.00
69528;BME280;57136;51.986;4.468;2023-02-23T02:21:49;101438.63;;;8.82;100.00
69528;BME280;57136;51.986;4.468;2023-02-23T02:29:53;101427.94;;;8.68;100.00
69528;BME280;57136;51.986;4.468;2023-02-23T02:38:30;101426.50;;;8.43;100.00
69528;BME280;57136;51.986;4.468;2023-02-23T02:41:16;101416.13;;;8.44;100.00
69528;BME280;57136;51.986;4.468;2023-02-23T02:44:05;101413.69;;;8.49;100.00
69528;BME280;57136;51.986;4.468;2023-02-23T02:46:40;101417.22;;;8.52;100.00
69528;BME280;57136;51.986;4.468;2023-02-23T02:49:25;101418.22;;;8.58;100.00
69528;BME280;57136;51.986;4.468;2023-02-23T02:54:45;101426.03;;;8.59;100.00
69528;BME280;57136;51.986;4.468;2023-02-23T02:57:13;101422.72;;;8.66;100.00
69528;BME280;57136;51.986;4.468;2023-02-23T02:59:44;101422.81;;;8.69;100.00
69528;BME280;57136;51.986;4.468;2023-02-23T03:02:34;101424.63;;;8.75;100.00
69528;BME280;57136;51.986;4.468;2023-02-23T03:05:24;101420.16;;;8.68;100.00
69528;BME280;57136;51.986;4.468;2023-02-23T03:11:16;101423.44;;;8.59;100.00
69528;BME280;57136;51.986;4.468;2023-02-23T03:20:27;101420.97;;;8.65;100.00
69528;BME280;57136;51.986;4.468;2023-02-23T03:29:32;101434.72;;;8.60;100.00
69528;BME280;57136;51.986;4.468;2023-02-23T03:32:29;101432.13;;;8.61;100.00
69528;BME280;57136;51.986;4.468;2023-02-23T03:35:23;101437.53;;;8.71;100.00
69528;BME280;57136;51.986;4.468;2023-02-23T03:38:13;101434.19;;;8.76;100.00
69528;BME280;57136;51.986;4.468;2023-02-23T03:41:01;101437.50;;;8.69;100.00
69528;BME280;57136;51.986;4.468;2023-02-23T03:43:54;101439.31;;;8.73;100.00
69528;BME280;57136;51.986;4.468;2023-02-23T03:46:40;101436.63;;;8.68;100.00
69528;BME280;57136;51.986;4.468;2023-02-23T03:49:28;101437.53;;;8.71;100.00
69528;BME280;57136;51.986;4.468;2023-02-23T03:52:17;101442.69;;;8.69;100.00
69528;BME280;57136;51.986;4.468;2023-02-23T03:55:09;101445.28;;;8.69;100.00
69528;BME280;57136;51.986;4.468;2023-02-23T03:57:58;101445.38;;;8.72;100.00
69528;BME280;57136;51.986;4.468;2023-02-23T04:00:46;101447.16;;;8.75;100.00
69528;BME280;57136;51.986;4.468;2023-02-23T04:03:34;101446.81;;;8.59;100.00
69528;BME280;57136;51.986;4.468;2023-02-23T04:06:22;101441.25;;;8.44;100.00
69528;BME280;57136;51.986;4.468;2023-02-23T04:09:09;101444.56;;;8.38;100.00
69528;BME280;57136;51.986;4.468;2023-02-23T04:12:20;101450.50;;;8.32;100.00
69528;BME280;57136;51.986;4.468;2023-02-23T04:15:12;101446.06;;;8.28;100.00
69528;BME280;57136;51.986;4.468;2023-02-23T04:17:40;101449.50;;;8.27;100.00
69528;BME280;57136;51.986;4.468;2023-02-23T04:20:10;101455.53;;;8.24;100.00
69528;BME280;57136;51.986;4.468;2023-02-23T04:22:36;101451.13;;;8.22;100.00
69528;BME280;57136;51.986;4.468;2023-02-23T04:25:02;101452.75;;;8.17;100.00
69528;BME280;57136;51.986;4.468;2023-02-23T04:27:30;101451.84;;;8.16;100.00
69528;BME280;57136;51.986;4.468;2023-02-23T04:29:55;101459.69;;;8.18;100.00
69528;BME280;57136;51.986;4.468;2023-02-23T04:32:20;101460.47;;;8.15;100.00
69528;BME280;57136;51.986;4.468;2023-02-23T04:34:47;101458.69;;;8.13;100.00
69528;BME280;57136;51.986;4.468;2023-02-23T04:37:12;101454.25;;;8.08;100.00
69528;BME280;57136;51.986;4.468;2023-02-23T04:39:40;101458.59;;;8.08;100.00
69528;BME280;57136;51.986;4.468;2023-02-23T04:42:12;101459.47;;;8.10;100.00
69528;BME280;57136;51.986;4.468;2023-02-23T04:44:38;101467.25;;;8.08;100.00
69528;BME280;57136;51.986;4.468;2023-02-23T04:47:03;101463.72;;;8.06;100.00
69528;BME280;57136;51.986;4.468;2023-02-23T04:49:29;101466.31;;;8.06;100.00
69528;BME280;57136;51.986;4.468;2023-02-23T04:51:54;101461.09;;;8.05;100.00
69528;BME280;57136;51.986;4.468;2023-02-23T04:54:20;101467.16;;;8.05;100.00
69528;BME280;57136;51.986;4.468;2023-02-23T04:56:46;101467.25;;;8.10;100.00
69528;BME280;57136;51.986;4.468;2023-02-23T04:59:11;101472.53;;;8.13;100.00
69528;BME280;57136;51.986;4.468;2023-02-23T05:01:37;101476.03;;;8.14;100.00
69528;BME280;57136;51.986;4.468;2023-02-23T05:04:03;101476.75;;;8.08;100.00
69528;BME280;57136;51.986;4.468;2023-02-23T05:06:28;101482.81;;;8.08;100.00
69528;BME280;57136;51.986;4.468;2023-02-23T05:08:54;101476.59;;;8.02;100.00
69528;BME280;57136;51.986;4.468;2023-02-23T05:11:19;101486.06;;;8.00;100.00
69528;BME280;57136;51.986;4.468;2023-02-23T05:13:47;101485.06;;;7.94;100.00
69528;BME280;57136;51.986;4.468;2023-02-23T05:16:12;101485.97;;;7.97;100.00
69528;BME280;57136;51.986;4.468;2023-02-23T05:18:37;101493.78;;;7.98;100.00
69528;BME280;57136;51.986;4.468;2023-02-23T05:21:06;101500.72;;;7.98;100.00
69528;BME280;57136;51.986;4.468;2023-02-23T05:23:33;101492.34;;;8.08;100.00
69528;BME280;57136;51.986;4.468;2023-02-23T05:26:05;101502.00;;;8.14;100.00
69528;BME280;57136;51.986;4.468;2023-02-23T05:28:33;101499.47;;;8.17;100.00
69528;BME280;57136;51.986;4.468;2023-02-23T05:30:58;101502.09;;;8.18;100.00
69528;BME280;57136;51.986;4.468;2023-02-23T05:33:24;101501.09;;;8.13;100.00
69528;BME280;57136;51.986;4.468;2023-02-23T05:35:49;101503.69;;;8.13;100.00
69528;BME280;57136;51.986;4.468;2023-02-23T05:38:15;101503.66;;;8.12;100.00
69528;BME280;57136;51.986;4.468;2023-02-23T05:40:40;101504.78;;;8.21;100.00
69528;BME280;57136;51.986;4.468;2023-02-23T05:43:06;101505.59;;;8.19;100.00
69528;BME280;57136;51.986;4.468;2023-02-23T05:45:42;101505.50;;;8.16;100.00
69528;BME280;57136;51.986;4.468;2023-02-23T05:48:09;101502.91;;;8.16;100.00
69528;BME280;57136;51.986;4.468;2023-02-23T05:50:35;101502.84;;;8.14;100.00
69528;BME280;57136;51.986;4.468;2023-02-23T05:53:00;101511.38;;;8.08;100.00
69528;BME280;57136;51.986;4.468;2023-02-23T05:55:25;101507.19;;;8.14;100.00
69528;BME280;57136;51.986;4.468;2023-02-23T05:57:51;101508.03;;;8.13;100.00
69528;BME280;57136;51.986;4.468;2023-02-23T06:00:17;101516.47;;;8.05;100.00
69528;BME280;57136;51.986;4.468;2023-02-23T06:02:44;101517.94;;;7.94;100.00
69528;BME280;57136;51.986;4.468;2023-02-23T06:05:11;101514.25;;;7.86;100.00
69528;BME280;57136;51.986;4.468;2023-02-23T06:07:37;101509.81;;;7.82;100.00
69528;BME280;57136;51.986;4.468;2023-02-23T06:10:03;101519.28;;;7.79;100.00
69528;BME280;57136;51.986;4.468;2023-02-23T06:12:29;101517.78;;;7.88;100.00
69528;BME280;57136;51.986;4.468;2023-02-23T06:14:54;101524.03;;;7.96;100.00
69528;BME280;57136;51.986;4.468;2023-02-23T06:17:21;101527.59;;;8.00;100.00
69528;BME280;57136;51.986;4.468;2023-02-23T06:19:46;101533.66;;;8.00;100.00
69528;BME280;57136;51.986;4.468;2023-02-23T06:22:12;101532.03;;;8.04;100.00
69528;BME280;57136;51.986;4.468;2023-02-23T06:24:41;101537.25;;;8.05;100.00
69528;BME280;57136;51.986;4.468;2023-02-23T06:27:06;101542.44;;;8.05;100.00
69528;BME280;57136;51.986;4.468;2023-02-23T06:29:32;101535.56;;;8.07;100.00
69528;BME280;57136;51.986;4.468;2023-02-23T06:31:57;101532.78;;;8.00;100.00
69528;BME280;57136;51.986;4.468;2023-02-23T06:34:24;101535.31;;;7.98;100.00
69528;BME280;57136;51.986;4.468;2023-02-23T06:36:49;101537.16;;;8.02;100.00
69528;BME280;57136;51.986;4.468;2023-02-23T06:39:14;101537.31;;;8.07;100.00
69528;BME280;57136;51.986;4.468;2023-02-23T06:41:40;101537.25;;;8.05;100.00
69528;BME280;57136;51.986;4.468;2023-02-23T06:44:05;101544.09;;;8.02;100.00
69528;BME280;57136;51.986;4.468;2023-02-23T06:46:31;101538.63;;;7.91;100.00
69528;BME280;57136;51.986;4.468;2023-02-23T06:48:57;101543.72;;;7.88;100.00
69528;BME280;57136;51.986;4.468;2023-02-23T06:51:24;101539.22;;;7.82;100.00
69528;BME280;57136;51.986;4.468;2023-02-23T06:53:50;101551.34;;;7.82;100.00
69528;BME280;57136;51.986;4.468;2023-02-23T06:56:18;101558.56;;;7.93;100.00
69528;BME280;57136;51.986;4.468;2023-02-23T06:58:43;101558.69;;;7.98;100.00
69528;BME280;57136;51.986;4.468;2023-02-23T07:01:09;101558.06;;;8.07;100.00
69528;BME280;57136;51.986;4.468;2023-02-23T07:03:35;101559.13;;;8.15;100.00
69528;BME280;57136;51.986;4.468;2023-02-23T07:06:00;101575.59;;;8.16;100.00
69528;BME280;57136;51.986;4.468;2023-02-23T07:08:28;101574.63;;;8.12;100.00
69528;BME280;57136;51.986;4.468;2023-02-23T07:10:53;101588.41;;;8.09;100.00
69528;BME280;57136;51.986;4.468;2023-02-23T07:13:18;101599.84;;;8.16;100.00
69528;BME280;57136;51.986;4.468;2023-02-23T07:15:44;101600.75;;;8.18;100.00
69528;BME280;57136;51.986;4.468;2023-02-23T07:18:10;101600.88;;;8.23;100.00
69528;BME280;57136;51.986;4.468;2023-02-23T07:20:35;101611.22;;;8.21;100.00
69528;BME280;57136;51.986;4.468;2023-02-23T07:23:00;101612.91;;;8.19;100.00
69528;BME280;57136;51.986;4.468;2023-02-23T07:25:29;101607.63;;;8.16;100.00
69528;BME280;57136;51.986;4.468;2023-02-23T07:27:57;101620.13;;;8.31;100.00
69528;BME280;57136;51.986;4.468;2023-02-23T07:30:23;101627.50;;;8.48;100.00
69528;BME280;57136;51.986;4.468;2023-02-23T07:32:52;101631.00;;;8.48;100.00
69528;BME280;57136;51.986;4.468;2023-02-23T07:35:18;101633.88;;;8.59;100.00
69528;BME280;57136;51.986;4.468;2023-02-23T07:37:44;101633.88;;;8.59;100.00
69528;BME280;57136;51.986;4.468;2023-02-23T07:40:10;101640.16;;;8.67;100.00
69528;BME280;57136;51.986;4.468;2023-02-23T07:42:35;101643.50;;;8.62;100.00
69528;BME280;57136;51.986;4.468;2023-02-23T07:45:01;101638.28;;;8.62;100.00
69528;BME280;57136;51.986;4.468;2023-02-23T07:47:29;101647.97;;;8.69;100.00
69528;BME280;57136;51.986;4.468;2023-02-23T07:49:59;101643.66;;;8.69;100.00
69528;BME280;57136;51.986;4.468;2023-02-23T07:52:27;101637.16;;;8.87;100.00
69528;BME280;57136;51.986;4.468;2023-02-23T07:54:52;101645.09;;;8.92;100.00
69528;BME280;57136;51.986;4.468;2023-02-23T07:57:18;101641.63;;;8.93;100.00
69528;BME280;57136;51.986;4.468;2023-02-23T07:59:45;101644.22;;;8.93;100.00
69528;BME280;57136;51.986;4.468;2023-02-23T08:02:13;101653.09;;;9.01;100.00
69528;BME280;57136;51.986;4.468;2023-02-23T08:04:39;101655.69;;;9.01;100.00
69528;BME280;57136;51.986;4.468;2023-02-23T08:07:07;101657.00;;;9.20;100.00
69528;BME280;57136;51.986;4.468;2023-02-23T08:09:33;101669.28;;;9.26;100.00
69528;BME280;57136;51.986;4.468;2023-02-23T08:12:00;101674.03;;;9.07;100.00
69528;BME280;57136;51.986;4.468;2023-02-23T08:14:25;101668.94;;;9.12;100.00
69528;BME280;57136;51.986;4.468;2023-02-23T08:16:51;101675.28;;;9.23;100.00
69528;BME280;57136;51.986;4.468;2023-02-23T08:19:16;101677.72;;;9.16;100.00
69528;BME280;57136;51.986;4.468;2023-02-23T08:21:41;101673.47;;;9.19;100.00
69528;BME280;57136;51.986;4.468;2023-02-23T08:24:07;101673.69;;;9.28;100.00
69528;BME280;57136;51.986;4.468;2023-02-23T08:26:34;101677.06;;;9.24;100.00
69528;BME280;57136;51.986;4.468;2023-02-23T08:29:00;101678.88;;;9.28;100.00
69528;BME280;57136;51.986;4.468;2023-02-23T08:31:25;101677.97;;;9.26;100.00
69528;BME280;57136;51.986;4.468;2023-02-23T08:33:52;101682.47;;;9.34;100.00
69528;BME280;57136;51.986;4.468;2023-02-23T08:36:18;101690.31;;;9.37;100.00
69528;BME280;57136;51.986;4.468;2023-02-23T08:38:44;101689.84;;;9.53;100.00
69528;BME280;57136;51.986;4.468;2023-02-23T08:41:11;101686.59;;;9.64;100.00
69528;BME280;57136;51.986;4.468;2023-02-23T08:43:36;101689.31;;;9.68;100.00
69528;BME280;57136;51.986;4.468;2023-02-23T08:46:04;101698.06;;;9.72;100.00
69528;BME280;57136;51.986;4.468;2023-02-23T08:48:30;101697.00;;;9.64;100.00
69528;BME280;57136;51.986;4.468;2023-02-23T08:50:57;101707.72;;;9.78;100.00
69528;BME280;57136;51.986;4.468;2023-02-23T08:53:22;101701.56;;;9.72;100.00
69528;BME280;57136;51.986;4.468;2023-02-23T08:56:00;101703.63;;;9.90;100.00
69528;BME280;57136;51.986;4.468;2023-02-23T08:58:27;101712.91;;;9.76;100.00
69528;BME280;57136;51.986;4.468;2023-02-23T09:00:52;101712.75;;;9.70;100.00
69528;BME280;57136;51.986;4.468;2023-02-23T09:03:19;101709.94;;;10.00;100.00
69528;BME280;57136;51.986;4.468;2023-02-23T09:05:45;101712.78;;;10.13;100.00
69528;BME280;57136;51.986;4.468;2023-02-23T09:08:12;101711.94;;;10.12;100.00
69528;BME280;57136;51.986;4.468;2023-02-23T09:10:38;101713.19;;;10.33;100.00
69528;BME280;57136;51.986;4.468;2023-02-23T09:13:03;101718.91;;;10.15;100.00
69528;BME280;57136;51.986;4.468;2023-02-23T09:15:29;101716.59;;;10.29;100.00
69528;BME280;57136;51.986;4.468;2023-02-23T09:17:58;101724.94;;;10.55;100.00
69528;BME280;57136;51.986;4.468;2023-02-23T09:20:24;101729.97;;;10.44;100.00
69528;BME280;57136;51.986;4.468;2023-02-23T09:22:51;101737.47;;;10.76;100.00
69528;BME280;57136;51.986;4.468;2023-02-23T09:25:18;101741.25;;;10.45;100.00
69528;BME280;57136;51.986;4.468;2023-02-23T09:27:52;101744.00;;;10.53;100.00
69528;BME280;57136;51.986;4.468;2023-02-23T09:30:19;101740.72;;;10.20;100.00
69528;BME280;57136;51.986;4.468;2023-02-23T09:32:46;101742.97;;;10.03;100.00
69528;BME280;57136;51.986;4.468;2023-02-23T09:35:13;101744.25;;;10.22;100.00
69528;BME280;57136;51.986;4.468;2023-02-23T09:37:42;101744.38;;;10.28;100.00
69528;BME280;57136;51.986;4.468;2023-02-23T09:40:14;101737.13;;;10.13;100.00
69528;BME280;57136;51.986;4.468;2023-02-23T09:50:49;101741.75;;;9.85;100.00
69528;BME280;57136;51.986;4.468;2023-02-23T09:55:43;101743.34;;;10.20;100.00
69528;BME280;57136;51.986;4.468;2023-02-23T09:58:27;101744.59;;;9.98;100.00
69528;BME280;57136;51.986;4.468;2023-02-23T10:07:31;101752.66;;;10.52;100.00
69528;BME280;57136;51.986;4.468;2023-02-23T10:10:23;101757.28;;;10.65;100.00
69528;BME280;57136;51.986;4.468;2023-02-23T10:15:52;101750.81;;;10.92;100.00
69528;BME280;57136;51.986;4.468;2023-02-23T10:18:32;101757.50;;;10.77;100.00
69528;BME280;57136;51.986;4.468;2023-02-23T10:21:07;101746.25;;;10.82;100.00
69528;BME280;57136;51.986;4.468;2023-02-23T10:23:42;101753.97;;;10.74;100.00
69528;BME280;57136;51.986;4.468;2023-02-23T10:26:13;101751.72;;;10.94;100.00
69528;BME280;57136;51.986;4.468;2023-02-23T10:28:40;101750.06;;;10.99;100.00
69528;BME280;57136;51.986;4.468;2023-02-23T10:31:29;101756.28;;;11.07;100.00
69528;BME280;57136;51.986;4.468;2023-02-23T10:34:02;101764.44;;;11.28;100.00
69528;BME280;57136;51.986;4.468;2023-02-23T10:36:58;101766.09;;;11.21;100.00
69528;BME280;57136;51.986;4.468;2023-02-23T10:39:24;101765.47;;;11.37;100.00
69528;BME280;57136;51.986;4.468;2023-02-23T10:41:51;101763.97;;;11.52;99.88
69528;BME280;57136;51.986;4.468;2023-02-23T10:44:25;101767.03;;;11.26;99.51
69528;BME280;57136;51.986;4.468;2023-02-23T10:47:14;101772.88;;;11.13;100.00
69528;BME280;57136;51.986;4.468;2023-02-23T10:49:49;101769.97;;;10.96;100.00
69528;BME280;57136;51.986;4.468;2023-02-23T10:52:19;101771.75;;;10.97;100.00
69528;BME280;57136;51.986;4.468;2023-02-23T10:54:48;101770.78;;;10.91;100.00
69528;BME280;57136;51.986;4.468;2023-02-23T10:57:28;101771.28;;;10.70;100.00
69528;BME280;57136;51.986;4.468;2023-02-23T11:02:42;101775.06;;;10.42;100.00
69528;BME280;57136;51.986;4.468;2023-02-23T11:05:27;101770.53;;;10.34;100.00
69528;BME280;57136;51.986;4.468;2023-02-23T11:08:23;101779.03;;;10.26;100.00
69528;BME280;57136;51.986;4.468;2023-02-23T11:11:02;101776.63;;;10.35;100.00
69528;BME280;57136;51.986;4.468;2023-02-23T11:13:42;101783.28;;;10.20;100.00
69528;BME280;57136;51.986;4.468;2023-02-23T11:16:24;101788.81;;;10.36;100.00
69528;BME280;57136;51.986;4.468;2023-02-23T11:19:04;101788.47;;;10.20;100.00
69528;BME280;57136;51.986;4.468;2023-02-23T11:21:32;101790.78;;;10.46;100.00
69528;BME280;57136;51.986;4.468;2023-02-23T11:24:17;101785.22;;;10.29;100.00
69528;BME280;57136;51.986;4.468;2023-02-23T11:26:45;101786.06;;;10.28;100.00
69528;BME280;57136;51.986;4.468;2023-02-23T11:29:21;101787.66;;;10.63;100.00
69528;BME280;57136;51.986;4.468;2023-02-23T11:31:53;101774.56;;;10.61;100.00
69528;BME280;57136;51.986;4.468;2023-02-23T11:34:32;101778.06;;;10.62;100.00
69528;BME280;57136;51.986;4.468;2023-02-23T11:37:17;101778.28;;;10.73;100.00
69528;BME280;57136;51.986;4.468;2023-02-23T11:42:20;101769.00;;;10.43;100.00
69528;BME280;57136;51.986;4.468;2023-02-23T11:45:06;101772.53;;;10.91;100.00
69528;BME280;57136;51.986;4.468;2023-02-23T11:47:40;101776.28;;;11.08;100.00
69528;BME280;57136;51.986;4.468;2023-02-23T11:50:25;101779.88;;;11.14;100.00
69528;BME280;57136;51.986;4.468;2023-02-23T11:53:04;101777.97;;;11.05;100.00
69528;BME280;57136;51.986;4.468;2023-02-23T11:55:32;101777.69;;;10.88;99.51
69528;BME280;57136;51.986;4.468;2023-02-23T12:01:02;101775.06;;;10.88;100.00
69528;BME280;57136;51.986;4.468;2023-02-23T12:03:31;101779.31;;;10.83;100.00
69528;BME280;57136;51.986;4.468;2023-02-23T12:05:57;101774.16;;;10.84;100.00
69528;BME280;57136;51.986;4.468;2023-02-23T12:08:43;101772.63;;;10.97;100.00
69528;BME280;57136;51.986;4.468;2023-02-23T12:11:14;101777.03;;;11.00;100.00
69528;BME280;57136;51.986;4.468;2023-02-23T12:13:44;101776.81;;;10.89;100.00
69528;BME280;57136;51.986;4.468;2023-02-23T12:16:22;101768.88;;;10.83;99.77
69528;BME280;57136;51.986;4.468;2023-02-23T12:26:35;101780.34;;;10.92;100.00
69528;BME280;57136;51.986;4.468;2023-02-23T12:29:17;101769.50;;;11.17;99.87
69528;BME280;57136;51.986;4.468;2023-02-23T12:31:56;101762.56;;;11.19;99.73
69528;BME280;57136;51.986;4.468;2023-02-23T12:37:36;101772.06;;;11.72;99.29
69528;BME280;57136;51.986;4.468;2023-02-23T12:40:13;101773.03;;;11.76;97.05
69528;BME280;57136;51.986;4.468;2023-02-23T12:42:49;101776.94;;;12.06;97.54
69528;BME280;57136;51.986;4.468;2023-02-23T12:45:21;101772.66;;;12.11;94.68
69528;BME280;57136;51.986;4.468;2023-02-23T12:50:31;101777.34;;;11.74;94.01
69528;BME280;57136;51.986;4.468;2023-02-23T12:55:38;101774.88;;;11.28;95.40
69528;BME280;57136;51.986;4.468;2023-02-23T13:01:18;101776.53;;;11.22;97.51
69528;BME280;57136;51.986;4.468;2023-02-23T13:06:43;101776.59;;;11.26;98.38
69528;BME280;57136;51.986;4.468;2023-02-23T13:09:25;101768.81;;;11.30;97.61
69528;BME280;57136;51.986;4.468;2023-02-23T13:14:33;101765.19;;;11.20;97.22
69528;BME280;57136;51.986;4.468;2023-02-23T13:19:50;101771.25;;;11.18;97.77
69528;BME280;57136;51.986;4.468;2023-02-23T13:24:52;101761.72;;;11.21;97.04
69528;BME280;57136;51.986;4.468;2023-02-23T13:27:37;101771.06;;;11.08;98.04
69528;BME280;57136;51.986;4.468;2023-02-23T13:30:08;101768.44;;;10.58;98.08
69528;BME280;57136;51.986;4.468;2023-02-23T13:32:34;101768.31;;;10.52;100.00
69528;BME280;57136;51.986;4.468;2023-02-23T13:35:05;101761.72;;;10.28;100.00
69528;BME280;57136;51.986;4.468;2023-02-23T13:40:51;101765.50;;;10.88;100.00
69528;BME280;57136;51.986;4.468;2023-02-23T13:51:49;101768.13;;;10.42;100.00
69528;BME280;57136;51.986;4.468;2023-02-23T13:56:47;101775.19;;;10.49;100.00
69528;BME280;57136;51.986;4.468;2023-02-23T13:59:22;101769.59;;;10.74;100.00
69528;BME280;57136;51.986;4.468;2023-02-23T14:01:51;101765.41;;;10.82;100.00
69528;BME280;57136;51.986;4.468;2023-02-23T14:04:25;101764.81;;;10.99;100.00
69528;BME280;57136;51.986;4.468;2023-02-23T14:06:59;101772.75;;;10.16;100.00
69528;BME280;57136;51.986;4.468;2023-02-23T14:09:29;101769.09;;;10.06;100.00
69528;BME280;57136;51.986;4.468;2023-02-23T14:12:15;101766.31;;;9.98;100.00
69528;BME280;57136;51.986;4.468;2023-02-23T14:14:44;101768.66;;;9.86;100.00
69528;BME280;57136;51.986;4.468;2023-02-23T14:20:13;101773.63;;;10.58;100.00
69528;BME280;57136;51.986;4.468;2023-02-23T14:25:47;101770.69;;;10.85;100.00
69528;BME280;57136;51.986;4.468;2023-02-23T14:28:33;101767.28;;;10.43;100.00
69528;BME280;57136;51.986;4.468;2023-02-23T14:31:15;101769.59;;;10.72;100.00
69528;BME280;57136;51.986;4.468;2023-02-23T14:41:49;101766.59;;;10.52;100.00
69528;BME280;57136;51.986;4.468;2023-02-23T14:44:27;101768.81;;;10.79;100.00
69528;BME280;57136;51.986;4.468;2023-02-23T14:47:06;101763.91;;;10.95;100.00
69528;BME280;57136;51.986;4.468;2023-02-23T14:49:37;101762.22;;;10.99;100.00
69528;BME280;57136;51.986;4.468;2023-02-23T14:52:27;101766.41;;;10.89;99.80
69528;BME280;57136;51.986;4.468;2023-02-23T14:57:39;101780.53;;;11.00;99.86
69528;BME280;57136;51.986;4.468;2023-02-23T15:00:28;101778.75;;;10.99;99.28
69528;BME280;57136;51.986;4.468;2023-02-23T15:02:53;101784.06;;;10.56;100.00
69528;BME280;57136;51.986;4.468;2023-02-23T15:05:22;101777.56;;;10.82;100.00
69528;BME280;57136;51.986;4.468;2023-02-23T15:07:49;101780.81;;;10.70;100.00
69528;BME280;57136;51.986;4.468;2023-02-23T15:10:28;101776.28;;;10.59;100.00
69528;BME280;57136;51.986;4.468;2023-02-23T15:12:54;101783.72;;;10.39;100.00
69528;BME280;57136;51.986;4.468;2023-02-23T15:15:23;101781.41;;;10.13;100.00